Time;durP1;ratioP1;P1;durP2;ratioP2;P2;SDS_P1;SDS_P2;PMS_P1;PMS_P2;Temp;Humidity;BMP_temperature;BMP_pressure;BME280_temperature;BME280_humidity;BME280_pressure;Samples;Min_cycle;Max_cycle;Signal;HPM_P1;HPM_P2
2023/03/02 00:00:33;;;;;;;53.33;23.00;;;2.50;99.90;;;;;;4825845;29;20109;-83
2023/03/02 00:03:00;;;;;;;55.70;24.53;;;2.80;99.90;;;;;;4843127;29;20391;-83
2023/03/02 00:10:20;;;;;;;53.47;24.60;;;1.30;99.90;;;;;;4786022;30;20064;-83
2023/03/02 00:12:46;;;;;;;58.40;25.10;;;1.90;99.90;;;;;;4784935;30;20508;-83
2023/03/02 00:15:15;;;;;;;59.17;25.43;;;2.00;99.90;;;;;;4786081;30;20058;-82
2023/03/02 00:17:41;;;;;;;56.50;24.60;;;1.90;99.90;;;;;;4770945;30;20110;-83
2023/03/02 00:20:10;;;;;;;55.90;24.87;;;1.60;99.90;;;;;;4785484;30;20536;-83
2023/03/02 00:22:51;;;;;;;54.53;24.47;;;1.90;99.90;;;;;;4785797;30;20108;-83
2023/03/02 00:25:17;;;;;;;56.33;25.30;;;2.10;99.90;;;;;;4785930;30;20047;-83
2023/03/02 00:27:55;;;;;;;63.77;27.30;;;1.90;99.90;;;;;;4824331;29;20632;-83
2023/03/02 00:34:41;;;;;;;59.13;25.23;;;3.10;99.90;;;;;;4837463;29;20065;-83
2023/03/02 00:37:06;;;;;;;60.67;26.85;;;2.10;99.90;;;;;;4788535;29;20066;-82
2023/03/02 00:39:44;;;;;;;63.47;26.30;;;1.60;99.90;;;;;;4787946;29;20047;-83
2023/03/02 00:42:13;;;;;;;61.20;25.67;;;2.70;99.90;;;;;;4808649;29;20152;-83
2023/03/02 00:44:45;;;;;;;59.70;27.00;;;2.20;99.90;;;;;;4840977;23;20160;-83
2023/03/02 00:48:20;;;;;;;65.17;27.07;;;2.50;99.90;;;;;;4842815;29;20050;-83
2023/03/02 00:50:45;;;;;;;57.72;25.67;;;1.90;99.90;;;;;;4826199;29;20161;-83
2023/03/02 00:53:17;;;;;;;57.50;25.63;;;2.80;99.90;;;;;;4897124;24;20126;-82
2023/03/02 00:56:09;;;;;;;59.57;25.43;;;1.50;99.90;;;;;;4851312;24;20442;-83
2023/03/02 00:58:53;;;;;;;55.47;24.23;;;1.80;99.90;;;;;;4846271;29;20046;-83
2023/03/02 01:01:22;;;;;;;56.78;24.35;;;1.40;99.90;;;;;;4829220;29;20050;-83
2023/03/02 01:03:48;;;;;;;57.43;24.57;;;2.80;99.90;;;;;;4829097;29;20116;-83
2023/03/02 01:06:25;;;;;;;53.23;23.27;;;1.30;99.90;;;;;;4846638;29;20049;-83
2023/03/02 01:11:21;;;;;;;54.73;24.27;;;1.70;99.90;;;;;;4844418;29;20050;-83
2023/03/02 01:13:48;;;;;;;54.33;25.00;;;2.00;99.90;;;;;;4829164;29;20049;-83
2023/03/02 01:16:14;;;;;;;56.63;24.97;;;1.90;99.90;;;;;;4845020;29;20140;-83
2023/03/02 01:21:14;;;;;;;53.03;24.57;;;1.70;99.90;;;;;;4925132;23;20050;-83
2023/03/02 01:29:49;;;;;;;50.22;23.23;;;1.60;99.90;;;;;;4820052;29;20049;-83
2023/03/02 01:32:21;;;;;;;54.93;23.57;;;1.60;99.90;;;;;;4828971;29;20049;-83
2023/03/02 01:34:50;;;;;;;61.83;24.93;;;1.40;99.90;;;;;;4828354;29;20045;-83
2023/03/02 01:37:15;;;;;;;55.10;23.93;;;2.00;99.90;;;;;;4828346;29;20076;-83
2023/03/02 01:39:44;;;;;;;53.80;23.17;;;2.40;99.90;;;;;;4844931;29;20050;-83
2023/03/02 01:42:34;;;;;;;53.97;23.53;;;1.80;99.90;;;;;;4828779;29;20133;-83
2023/03/02 01:45:00;;;;;;;52.97;23.47;;;1.60;99.90;;;;;;4828156;29;20057;-83
2023/03/02 01:47:35;;;;;;;52.67;23.37;;;1.00;99.90;;;;;;4849748;23;20033;-83
2023/03/02 01:50:20;;;;;;;53.20;23.77;;;1.70;99.90;;;;;;4845431;29;20494;-84
2023/03/02 01:52:58;;;;;;;50.77;22.60;;;1.20;99.90;;;;;;4843413;29;20133;-83
2023/03/02 01:55:48;;;;;;;53.43;23.07;;;1.30;99.90;;;;;;4808554;29;20504;-83
2023/03/02 01:58:16;;;;;;;53.10;23.50;;;2.60;99.90;;;;;;4826047;29;20082;-84
2023/03/02 02:00:57;;;;;;;52.07;22.67;;;1.00;99.90;;;;;;4810380;29;20491;-83
2023/03/02 02:03:29;;;;;;;55.67;22.97;;;1.00;99.90;;;;;;4827080;29;20046;-83
2023/03/02 02:09:25;;;;;;;56.03;23.83;;;1.00;99.90;;;;;;4825912;29;20512;-83
2023/03/02 02:11:51;;;;;;;48.93;22.30;;;1.60;99.90;;;;;;4809821;29;20153;-83
2023/03/02 02:14:37;;;;;;;58.70;23.20;;;1.00;99.90;;;;;;4810790;29;20039;-83
2023/03/02 02:17:28;;;;;;;51.33;21.27;;;2.10;99.90;;;;;;4779090;30;20063;-84
2023/03/02 02:20:24;;;;;;;50.53;21.47;;;1.70;99.90;;;;;;4781447;30;20051;-83
2023/03/02 02:23:26;;;;;;;51.70;22.40;;;1.20;99.90;;;;;;4776529;30;20119;-83
2023/03/02 02:25:54;;;;;;;47.53;21.17;;;1.20;99.90;;;;;;4784909;30;20059;-83
2023/03/02 02:29:00;;;;;;;46.53;21.67;;;0.90;99.90;;;;;;4795840;29;20108;-84
2023/03/02 02:32:10;;;;;;;54.73;23.00;;;1.10;99.90;;;;;;4775698;30;20056;-83
2023/03/02 02:35:04;;;;;;;51.80;22.50;;;1.10;99.90;;;;;;4791406;29;20043;-83
2023/03/02 02:38:20;;;;;;;51.03;21.07;;;1.40;99.90;;;;;;4822967;23;20073;-84
2023/03/02 02:44:39;;;;;;;54.20;21.03;;;1.20;99.90;;;;;;4844078;29;20050;-83
2023/03/02 02:51:33;;;;;;;51.50;21.57;;;1.90;99.90;;;;;;4827788;29;20375;-84
2023/03/02 02:54:18;;;;;;;54.47;21.43;;;1.90;99.90;;;;;;4839554;23;20477;-83
2023/03/02 02:57:46;;;;;;;52.27;21.13;;;1.20;99.90;;;;;;4844207;29;20050;-84
2023/03/02 03:00:37;;;;;;;51.77;20.67;;;2.10;99.90;;;;;;4826807;29;20058;-83
2023/03/02 03:03:46;;;;;;;51.37;20.97;;;1.20;99.90;;;;;;4824398;29;20487;-84
2023/03/02 03:06:13;;;;;;;53.20;22.03;;;1.10;99.90;;;;;;4835926;24;20061;31
2023/03/02 03:08:45;;;;;;;53.30;22.23;;;1.00;99.90;;;;;;4806831;29;20058;-84
2023/03/02 03:11:18;;;;;;;51.40;22.17;;;0.90;99.90;;;;;;4809413;29;20065;-83
2023/03/02 03:13:45;;;;;;;53.70;22.23;;;1.00;99.90;;;;;;4826031;29;20550;-83
2023/03/02 03:16:15;;;;;;;53.67;22.27;;;1.00;99.90;;;;;;4808546;29;20445;-83
2023/03/02 03:18:51;;;;;;;58.80;22.67;;;1.00;99.90;;;;;;4808952;29;20046;-84
2023/03/02 03:21:19;;;;;;;59.87;22.60;;;1.00;99.90;;;;;;4825914;29;20084;-83
2023/03/02 03:23:45;;;;;;;64.60;24.30;;;1.00;99.90;;;;;;4824772;29;20059;-83
2023/03/02 03:26:11;;;;;;;60.07;22.83;;;1.00;99.90;;;;;;4809807;29;20046;-83
2023/03/02 03:28:36;;;;;;;71.87;24.03;;;1.00;99.90;;;;;;4808835;29;20050;-84
2023/03/02 03:31:02;;;;;;;59.00;22.67;;;1.00;99.90;;;;;;4824842;29;20046;-83
2023/03/02 03:37:12;;;;;;;78.87;24.73;;;1.20;99.90;;;;;;4785296;29;20059;-84
2023/03/02 03:39:47;;;;;;;71.50;22.97;;;2.10;99.90;;;;;;4787040;29;20058;-84
2023/03/02 03:42:21;;;;;;;102.47;25.70;;;0.50;99.90;;;;;;4808310;29;20050;-83
2023/03/02 03:44:47;;;;;;;71.53;23.53;;;0.80;99.90;;;;;;4823932;29;20054;-84
2023/03/02 03:47:18;;;;;;;78.57;23.77;;;0.60;99.90;;;;;;4809641;29;20069;-83
2023/03/02 03:49:53;;;;;;;126.77;26.23;;;1.60;99.90;;;;;;4819400;29;20083;-84
2023/03/02 03:53:12;;;;;;;72.07;22.97;;;0.80;99.90;;;;;;4809005;29;20053;-84
2023/03/02 03:55:55;;;;;;;81.07;23.83;;;1.00;99.90;;;;;;4778615;30;20061;-83
2023/03/02 03:58:39;;;;;;;105.65;25.10;;;0.40;99.90;;;;;;4798369;29;20055;-84
2023/03/02 04:01:05;;;;;;;118.68;26.10;;;0.40;99.90;;;;;;4771870;30;20059;-83
2023/03/02 04:03:45;;;;;;;101.30;23.17;;;0.40;99.90;;;;;;4786382;29;20110;-84
2023/03/02 04:06:17;;;;;;;100.90;25.73;;;0.40;99.90;;;;;;4770530;29;20464;-83
2023/03/02 04:08:43;;;;;;;118.80;26.47;;;1.40;99.90;;;;;;4786219;29;20067;-84
2023/03/02 04:11:11;;;;;;;121.40;26.80;;;0.50;99.90;;;;;;4770964;30;20055;-84
2023/03/02 04:13:52;;;;;;;135.20;26.97;;;1.10;99.90;;;;;;4770906;29;20055;-83
2023/03/02 04:16:18;;;;;;;167.60;28.33;;;1.30;99.90;;;;;;4771641;30;20051;-84
2023/03/02 04:18:56;;;;;;;123.90;27.43;;;1.10;99.90;;;;;;4772297;29;20142;-84
2023/03/02 04:21:43;;;;;;;121.80;27.20;;;1.40;99.90;;;;;;4800743;24;20091;-84
2023/03/02 04:24:17;;;;;;;115.23;27.43;;;0.70;99.90;;;;;;4808178;29;20047;-84
2023/03/02 04:26:47;;;;;;;144.30;28.90;;;0.80;99.90;;;;;;4807466;29;20114;-84
2023/03/02 04:29:22;;;;;;;139.93;29.23;;;1.40;99.90;;;;;;4824531;29;20061;-84
2023/03/02 04:31:48;;;;;;;118.70;29.67;;;1.60;99.90;;;;;;4823917;29;20175;-84
2023/03/02 04:34:20;;;;;;;115.90;27.30;;;1.30;99.90;;;;;;4807422;29;20081;-84
2023/03/02 04:36:45;;;;;;;274.23;35.23;;;0.70;99.90;;;;;;4808513;29;20053;-84
2023/03/02 04:39:24;;;;;;;144.13;28.60;;;2.50;99.90;;;;;;4808383;29;20042;-84
2023/03/02 04:45:00;;;;;;;146.30;30.10;;;2.00;99.90;;;;;;4842266;29;20118;-84
2023/03/02 04:47:28;;;;;;;127.63;29.47;;;0.30;99.90;;;;;;4825067;29;20562;-84
2023/03/02 04:50:04;;;;;;;158.93;33.43;;;1.50;99.90;;;;;;4825988;29;20050;-83
2023/03/02 04:53:19;;;;;;;147.57;30.40;;;0.60;99.90;;;;;;4825575;29;20087;-84
2023/03/02 04:56:38;;;;;;;124.13;31.50;;;1.10;99.90;;;;;;4825621;29;20546;-84
2023/03/02 04:59:04;;;;;;;137.47;26.53;;;1.60;99.90;;;;;;4826296;29;20054;-83
2023/03/02 05:01:53;;;;;;;105.10;27.90;;;0.40;99.90;;;;;;4823361;29;20407;-83
2023/03/02 05:04:22;;;;;;;182.03;32.57;;;0.30;99.90;;;;;;4842076;29;20042;-83
2023/03/02 05:06:48;;;;;;;153.53;30.67;;;0.50;99.90;;;;;;4841270;29;20046;-83
2023/03/02 05:09:29;;;;;;;209.87;32.97;;;1.70;99.90;;;;;;4825112;29;20046;-83
2023/03/02 05:12:09;;;;;;;133.20;29.70;;;0.90;99.90;;;;;;4825797;29;20110;-83
2023/03/02 05:14:53;;;;;;;158.03;28.93;;;1.00;99.90;;;;;;4841741;29;20038;-84
2023/03/02 05:17:43;;;;;;;150.75;30.63;;;0.70;99.90;;;;;;4842778;29;20072;-83
2023/03/02 05:20:39;;;;;;;174.67;30.43;;;1.80;99.90;;;;;;4849944;29;20042;-83
2023/03/02 05:23:56;;;;;;;188.07;33.70;;;0.70;99.90;;;;;;4836287;29;20046;-83
2023/03/02 05:26:27;;;;;;;176.67;30.93;;;1.00;99.90;;;;;;4769199;30;20047;-83
2023/03/02 05:29:46;;;;;;;132.63;30.33;;;1.10;99.90;;;;;;4786651;30;20092;-83
2023/03/02 05:32:27;;;;;;;165.93;32.53;;;1.40;99.90;;;;;;4753610;30;20428;-84
2023/03/02 05:34:52;;;;;;;163.47;31.17;;;0.20;99.90;;;;;;4768046;30;20059;-84
2023/03/02 05:37:24;;;;;;;148.30;30.97;;;0.50;99.90;;;;;;4839865;29;20054;-84
2023/03/02 05:40:17;;;;;;;160.93;32.30;;;0.20;99.90;;;;;;4902451;23;20054;-84
2023/03/02 05:42:44;;;;;;;145.43;30.70;;;0.40;99.90;;;;;;4826689;29;20046;-84
2023/03/02 05:45:33;;;;;;;121.90;30.47;;;-0.50;99.90;;;;;;4845469;29;20516;-83
2023/03/02 05:47:59;;;;;;;146.60;30.73;;;-0.20;99.90;;;;;;4828571;29;20124;-83
2023/03/02 05:50:41;;;;;;;133.63;31.50;;;0.50;99.90;;;;;;4830162;29;20095;-83
2023/03/02 05:53:09;;;;;;;;;;;2.50;99.90;;;;;;4846328;29;20456;-83
2023/03/02 05:55:53;;;;;;;99.57;26.80;;;1.20;99.90;;;;;;4846700;29;19931;-83
2023/03/02 05:58:26;;;;;;;115.20;27.60;;;0.40;99.90;;;;;;4830693;29;20038;-83
2023/03/02 06:01:36;;;;;;;100.53;27.57;;;0.30;99.90;;;;;;4845969;29;20046;-84
2023/03/02 06:04:05;;;;;;;101.53;29.13;;;;;;;;;;4828609;29;20053;-84
2023/03/02 06:06:51;;;;;;;142.50;32.23;;;0.20;99.90;;;;;;4845269;29;20042;-83
2023/03/02 06:09:16;;;;;;;200.87;34.57;;;0.10;99.90;;;;;;4833185;24;20141;-84
2023/03/02 06:11:42;;;;;;;102.60;29.40;;;1.40;99.90;;;;;;4843980;29;20141;-84
2023/03/02 06:14:29;;;;;;;156.27;31.77;;;0.40;99.90;;;;;;4844799;29;20085;-87
2023/03/02 06:16:57;;;;;;;146.43;31.87;;;0.40;99.90;;;;;;4834210;24;20050;-94
2023/03/02 06:19:23;;;;;;;173.33;31.90;;;0.50;99.90;;;;;;4828488;29;20050;-91
2023/03/02 06:21:51;;;;;;;104.27;28.57;;;0.50;99.90;;;;;;4828781;29;20060;-92
2023/03/02 06:24:23;;;;;;;177.97;33.50;;;1.40;99.90;;;;;;4832651;29;20061;-94
2023/03/02 06:27:11;;;;;;;205.93;34.97;;;0.50;99.90;;;;;;4828596;29;20084;-93
2023/03/02 06:29:48;;;;;;;202.07;36.20;;;0.70;99.90;;;;;;4796192;29;20059;-94
2023/03/02 06:32:32;;;;;;;171.10;34.50;;;0.60;99.90;;;;;;4855194;23;20046;-92
2023/03/02 06:41:28;;;;;;;179.93;35.70;;;0.30;99.90;;;;;;552494;23;20335;-93
2023/03/02 06:44:43;;;;;;;208.80;35.70;;;1.30;99.90;;;;;;4807369;29;20074;-93
2023/03/02 06:50:57;;;;;;;177.30;34.43;;;1.50;99.90;;;;;;4860798;23;20042;-95
2023/03/02 06:53:28;;;;;;;229.43;35.10;;;1.60;99.90;;;;;;4856838;29;20511;-92
2023/03/02 06:58:44;;;;;;;145.47;31.47;;;-0.20;99.90;;;;;;4855045;23;20129;-91
2023/03/02 07:01:36;;;;;;;142.53;30.73;;;0.90;99.90;;;;;;4839773;24;20080;-91
2023/03/02 07:04:20;;;;;;;123.13;30.30;;;0.40;99.90;;;;;;4830867;29;20050;-92
2023/03/02 07:10:12;;;;;;;131.60;31.43;;;-0.30;99.90;;;;;;5707714;23;20043;-92
2023/03/02 07:13:01;;;;;;;152.17;35.40;;;0.10;99.90;;;;;;4859597;24;1171974;-93
2023/03/02 07:19:19;;;;;;;127.90;32.03;;;0.50;99.90;;;;;;4848761;23;20415;-94
2023/03/02 07:22:06;;;;;;;117.90;29.17;;;0.50;99.90;;;;;;4840968;29;20054;-93
2023/03/02 07:24:44;;;;;;;120.50;28.57;;;0.80;99.90;;;;;;4826627;29;20048;-92
2023/03/02 07:27:54;;;;;;;117.10;29.77;;;0.90;99.90;;;;;;4844016;29;20054;-94
2023/03/02 07:30:38;;;;;;;131.53;31.93;;;1.70;99.90;;;;;;4805364;24;20107;-93
2023/03/02 07:33:55;;;;;;;102.73;28.53;;;0.30;99.90;;;;;;4843610;29;20054;-94
2023/03/02 07:36:47;;;;;;;139.33;28.67;;;0.80;99.90;;;;;;4825956;29;20072;-92
2023/03/02 07:39:21;;;;;;;115.43;28.57;;;0.50;99.90;;;;;;4825905;29;20049;-93
2023/03/02 07:42:03;;;;;;;95.67;28.17;;;0.90;99.90;;;;;;4842382;29;20038;-94
2023/03/02 07:44:46;;;;;;;98.57;29.93;;;0.50;99.90;;;;;;4840419;23;20066;-95
2023/03/02 07:47:13;;;;;;;;;;;1.80;99.90;;;;;;4826246;29;20054;-89
2023/03/02 07:49:59;;;;;;;123.77;29.13;;;0.20;99.90;;;;;;4807979;23;19924;-90
2023/03/02 07:52:46;;;;;;;88.63;27.47;;;1.70;99.90;;;;;;4802594;29;20045;-88
2023/03/02 08:13:08;;;;;;;95.93;26.30;;;2.30;99.90;;;;;;4847219;23;20473;-93
2023/03/02 08:15:43;;;;;;;92.57;26.30;;;1.80;99.90;;;;;;4842294;29;20102;-93
2023/03/02 08:18:52;;;;;;;91.63;26.13;;;0.80;99.90;;;;;;4868500;23;20090;-91
2023/03/02 08:28:02;;;;;;;84.77;26.43;;;0.10;99.90;;;;;;4823657;29;20070;-92
2023/03/02 08:30:39;;;;;;;95.80;26.27;;;2.80;99.90;;;;;;4790810;29;20055;-93
2023/03/02 08:33:14;;;;;;;65.00;25.40;;;2.40;99.90;;;;;;4790612;29;20774;-92
2023/03/02 08:35:43;;;;;;;61.00;23.00;;;1.40;99.90;;;;;;4803648;29;20050;-91
2023/03/02 09:11:15;;;;;;;58.13;22.37;;;1.50;99.90;;;;;;5218069;24;20117;-96
2023/03/02 09:13:46;;;;;;;54.10;20.17;;;1.40;99.90;;;;;;4831847;24;20418;-91
2023/03/02 09:28:56;;;;;;;47.00;19.40;;;1.70;99.90;;;;;;5313057;23;20206;-96
2023/03/02 09:32:14;;;;;;;52.00;19.73;;;3.40;99.90;;;;;;4846785;29;20049;-96
2023/03/02 10:10:50;;;;;;;;;;;;;;;;;;;;;
2023/03/02 10:13:55;;;;;;;40.27;18.33;;;2.40;99.90;;;;;;4922690;24;20107;-96
2023/03/02 10:16:47;;;;;;;36.93;18.10;;;1.90;99.90;;;;;;4864350;29;20053;-95
2023/03/02 10:20:08;;;;;;;34.93;17.83;;;2.60;99.90;;;;;;4866442;29;20038;-94
2023/03/02 10:23:24;;;;;;;;;;;;;;;;;;;;;
2023/03/02 10:30:26;;;;;;;35.13;17.33;;;3.60;99.90;;;;;;4853116;29;20061;-95
2023/03/02 10:32:53;;;;;;;37.03;19.00;;;2.30;99.90;;;;;;4818472;29;20054;-96
2023/03/02 10:49:47;;;;;;;33.60;16.90;;;3.80;99.90;;;;;;4865909;29;20119;-96
2023/03/02 10:52:16;;;;;;;32.90;16.77;;;3.60;99.90;;;;;;4832924;29;20038;-93
2023/03/02 10:54:46;;;;;;;31.27;16.20;;;3.20;99.90;;;;;;4828419;29;20057;-94
2023/03/02 10:57:40;;;;;;;31.30;16.13;;;3.90;99.90;;;;;;4821447;29;20050;-96
2023/03/02 11:01:04;;;;;;;29.33;15.60;;;2.30;99.90;;;;;;4825898;24;20094;-96
2023/03/02 11:06:26;;;;;;;29.27;16.33;;;3.10;99.90;;;;;;4915901;23;20050;-96
2023/03/02 11:14:55;;;;;;;30.30;16.00;;;3.10;99.90;;;;;;5117643;23;20038;-94
2023/03/02 11:17:56;;;;;;;32.70;17.37;;;2.50;99.90;;;;;;4773012;30;20044;-95
2023/03/02 11:21:12;;;;;;;;;;;;;;;;;;;;;
2023/03/02 11:30:30;;;;;;;30.40;16.43;;;3.00;99.90;;;;;;4876133;23;20426;-92
2023/03/02 11:33:46;;;;;;;29.30;15.87;;;3.90;99.90;;;;;;4799334;29;20051;-96
2023/03/02 11:40:59;;;;;;;30.90;17.00;;;4.70;99.90;;;;;;4830128;29;20026;-96
2023/03/02 11:55:47;;;;;;;31.17;16.70;;;4.70;99.90;;;;;;4858675;24;20165;-96
2023/03/02 12:02:22;;;;;;;29.60;16.37;;;4.90;99.90;;;;;;4851601;23;20118;-96
2023/03/02 12:27:24;;;;;;;26.20;15.00;;;5.20;99.90;;;;;;5328622;24;20117;-96
2023/03/02 12:33:22;;;;;;;29.53;16.27;;;6.40;99.90;;;;;;5156859;23;20054;31
2023/03/02 12:55:59;;;;;;;29.77;16.10;;;4.20;99.90;;;;;;4858282;29;20057;-96
2023/03/02 13:45:31;;;;;;;28.00;15.17;;;3.80;99.90;;;;;;5430958;23;20250;-96
2023/03/02 13:56:13;;;;;;;29.30;15.57;;;3.30;99.90;;;;;;5233673;24;20068;-96
2023/03/02 14:06:51;;;;;;;28.00;15.30;;;3.80;99.90;;;;;;4841258;29;20065;-96
2023/03/02 14:09:32;;;;;;;30.10;15.13;;;3.60;99.90;;;;;;4825686;29;20073;-96
2023/03/02 14:43:25;;;;;;;27.93;14.67;;;3.30;99.90;;;;;;4859037;29;20046;-96
2023/03/02 14:51:44;;;;;;;27.20;14.60;;;4.20;99.90;;;;;;4853586;29;20065;-96
2023/03/02 14:54:20;;;;;;;27.57;14.30;;;4.50;99.90;;;;;;4859120;29;20057;-96
2023/03/02 14:57:25;;;;;;;;;;;;;;;;;;;;;
2023/03/02 15:03:24;;;;;;;27.43;14.67;;;4.80;99.90;;;;;;4859031;29;20540;-96
2023/03/02 15:09:28;;;;;;;26.30;14.32;;;5.30;99.90;;;;;;4887275;24;20073;-96
2023/03/02 15:15:29;;;;;;;26.45;14.82;;;7.20;99.90;;;;;;4873487;29;20049;-96
2023/03/02 15:18:04;;;;;;;26.03;14.47;;;5.90;99.90;;;;;;4860206;23;20085;-93
2023/03/02 15:20:45;;;;;;;26.60;15.30;;;7.50;99.90;;;;;;4840252;29;20053;-95
2023/03/02 15:23:17;;;;;;;25.43;14.13;;;6.00;99.90;;;;;;4841325;29;20140;-93
2023/03/02 15:33:29;;;;;;;24.07;13.50;;;6.60;99.90;;;;;;4806118;29;20093;-96
2023/03/02 15:36:47;;;;;;;23.43;13.10;;;8.20;99.90;;;;;;4811616;29;20050;-95
2023/03/02 15:49:32;;;;;;;23.17;12.40;;;7.80;99.90;;;;;;4906339;24;20078;-96
2023/03/02 16:14:42;;;;;;;19.87;10.57;;;5.20;99.90;;;;;;4832106;29;20058;-96
2023/03/02 16:25:44;;;;;;;20.13;10.20;;;5.10;99.90;;;;;;5758205;23;20035;-95
2023/03/02 16:28:40;;;;;;;19.47;10.17;;;5.00;99.90;;;;;;4847570;29;20077;-96
2023/03/02 16:35:49;;;;;;;15.70;7.93;;;5.70;99.90;;;;;;4865079;24;20566;-96
2023/03/02 16:45:52;;;;;;;15.90;8.50;;;4.50;99.90;;;;;;5211658;23;20053;-96
2023/03/02 16:48:23;;;;;;;18.03;8.03;;;4.10;99.90;;;;;;4863403;29;20060;-93
2023/03/02 16:50:59;;;;;;;18.17;9.30;;;4.40;99.90;;;;;;4838339;24;20131;-94
2023/03/02 16:56:52;;;;;;;16.57;8.57;;;4.40;99.90;;;;;;4821110;29;20053;-91
2023/03/02 16:59:24;;;;;;;18.30;9.20;;;4.10;99.90;;;;;;4798542;29;20058;-94
2023/03/02 17:09:16;;;;;;;;;;;;;;;;;;;;;
2023/03/02 17:15:37;;;;;;;19.70;9.90;;;3.80;99.90;;;;;;5411171;23;20122;-96
2023/03/02 17:40:54;;;;;;;17.33;8.33;;;2.90;99.90;;;;;;921832;23;20363;-93
2023/03/02 17:43:19;;;;;;;19.87;8.87;;;3.80;99.90;;;;;;4855756;29;20057;-92
2023/03/02 17:46:24;;;;;;;;;;;;;;;;;;;;;
2023/03/02 17:49:03;;;;;;;20.80;10.07;;;2.80;99.90;;;;;;4864410;29;20045;-93
2023/03/02 17:51:38;;;;;;;20.47;10.30;;;2.70;99.90;;;;;;4850926;29;20049;-92
2023/03/02 17:54:04;;;;;;;20.97;10.33;;;2.50;99.90;;;;;;4866992;23;20046;-91
2023/03/02 17:56:30;;;;;;;21.83;10.00;;;2.60;99.90;;;;;;4828739;29;20054;-92
2023/03/02 18:08:54;;;;;;;22.87;10.03;;;2.70;99.90;;;;;;4854575;29;20057;-93
2023/03/02 18:11:27;;;;;;;23.25;10.70;;;2.70;99.90;;;;;;4849366;23;20034;-90
2023/03/02 18:14:18;;;;;;;23.87;10.97;;;4.50;99.90;;;;;;4843560;29;20062;-92
2023/03/02 18:16:44;;;;;;;20.80;10.57;;;2.20;99.90;;;;;;5418163;23;20016;-92
2023/03/02 18:23:55;;;;;;;23.37;10.60;;;1.80;99.90;;;;;;4844308;29;20061;-93
2023/03/02 18:26:47;;;;;;;23.97;11.87;;;2.80;99.90;;;;;;4844832;29;20109;-88
2023/03/02 18:29:25;;;;;;;21.93;10.80;;;4.00;99.90;;;;;;4825457;29;20061;-88
2023/03/02 18:31:51;;;;;;;23.03;11.07;;;3.30;99.90;;;;;;4828306;29;20390;-82
2023/03/02 18:34:23;;;;;;;21.20;11.17;;;2.20;99.90;;;;;;4827355;29;20050;-83
2023/03/02 18:36:49;;;;;;;22.97;11.07;;;2.10;99.90;;;;;;4978607;24;20154;-82
2023/03/02 18:39:15;;;;;;;21.97;11.33;;;2.20;99.90;;;;;;4822654;29;20508;-80
2023/03/02 18:51:46;;;;;;;21.97;10.80;;;1.50;99.90;;;;;;4845766;23;20065;-79
2023/03/02 19:00:26;;;;;;;21.90;10.83;;;3.10;99.90;;;;;;4856028;24;20109;-80
2023/03/02 19:02:56;;;;;;;23.80;10.70;;;1.90;99.90;;;;;;4846741;29;20053;-81
2023/03/02 19:05:55;;;;;;;23.60;11.07;;;2.30;99.90;;;;;;4845837;29;20396;-82
2023/03/02 19:08:43;;;;;;;23.27;10.80;;;2.20;99.90;;;;;;4828519;29;20119;-82
2023/03/02 19:11:24;;;;;;;24.60;11.40;;;2.10;99.90;;;;;;4813041;29;20054;-82
2023/03/02 19:14:01;;;;;;;23.50;10.90;;;2.50;99.90;;;;;;4835560;29;20046;-82
2023/03/02 19:24:27;;;;;;;23.90;11.05;;;0.90;99.90;;;;;;4726749;30;20051;-82
2023/03/02 19:26:58;;;;;;;23.90;11.43;;;1.10;99.90;;;;;;4767436;30;20051;-82
2023/03/02 19:29:25;;;;;;;21.70;10.80;;;1.10;99.90;;;;;;4770068;30;20079;-83
2023/03/02 19:32:18;;;;;;;24.23;10.83;;;1.90;99.90;;;;;;4766109;30;20043;-83
2023/03/02 19:34:45;;;;;;;24.33;10.88;;;1.50;99.90;;;;;;4753192;30;20059;-83
2023/03/02 19:38:17;;;;;;;23.63;11.30;;;1.60;99.90;;;;;;4753368;30;20548;-83
2023/03/02 19:40:42;;;;;;;23.70;11.17;;;2.20;99.90;;;;;;4713028;30;20056;-83
2023/03/02 19:43:29;;;;;;;24.37;11.30;;;1.00;99.90;;;;;;4752775;30;20059;-83
2023/03/02 19:45:57;;;;;;;24.10;10.63;;;0.60;99.90;;;;;;4749201;30;20060;-82
2023/03/02 19:48:37;;;;;;;24.60;11.87;;;0.90;99.90;;;;;;4769476;30;20070;-82
2023/03/02 19:53:39;;;;;;;26.38;12.45;;;1.10;99.90;;;;;;4891138;23;20050;-82
2023/03/02 19:56:08;;;;;;;25.47;12.07;;;1.70;99.90;;;;;;4826492;29;20126;-82
2023/03/02 20:01:41;;;;;;;25.87;12.70;;;1.20;99.90;;;;;;4825623;29;20086;-82
2023/03/02 20:04:07;;;;;;;27.60;13.80;;;0.90;99.90;;;;;;4845026;29;20131;-82
2023/03/02 20:06:36;;;;;;;29.17;13.77;;;0.90;99.90;;;;;;4842710;29;20143;-84
2023/03/02 20:09:48;;;;;;;30.07;14.00;;;2.30;99.90;;;;;;4850151;29;20395;-84
2023/03/02 20:12:18;;;;;;;26.23;13.67;;;0.80;99.90;;;;;;4828967;29;20050;-84
2023/03/02 20:15:36;;;;;;;30.47;13.97;;;1.20;99.90;;;;;;4872218;29;20068;-84
2023/03/02 20:20:49;;;;;;;29.90;13.87;;;0.70;99.90;;;;;;4847715;23;20054;-84
2023/03/02 20:23:39;;;;;;;31.60;14.53;;;1.10;99.90;;;;;;4841447;29;20212;-84
2023/03/02 20:26:36;;;;;;;32.07;14.67;;;2.00;99.90;;;;;;4825343;29;20049;-84
2023/03/02 20:29:04;;;;;;;33.00;15.73;;;0.90;99.90;;;;;;4832679;29;20053;-83
2023/03/02 20:39:57;;;;;;;33.93;17.17;;;0.30;99.90;;;;;;4787513;29;20055;-83
2023/03/02 20:42:56;;;;;;;41.80;18.40;;;2.60;99.90;;;;;;4784910;29;20074;-82
2023/03/02 20:45:40;;;;;;;37.63;17.83;;;1.70;99.90;;;;;;4775813;29;20511;-83
2023/03/02 20:48:09;;;;;;;38.60;17.10;;;1.30;99.90;;;;;;4802786;29;20057;-83
2023/03/02 20:50:48;;;;;;;38.93;17.70;;;2.00;99.90;;;;;;4802161;29;20522;-83
2023/03/02 20:53:36;;;;;;;36.97;17.43;;;2.50;99.90;;;;;;4802946;29;20061;-83
2023/03/02 20:56:37;;;;;;;35.10;16.17;;;1.10;99.90;;;;;;4794041;29;20050;-83
2023/03/02 20:59:09;;;;;;;35.40;15.63;;;2.60;99.90;;;;;;4775391;29;20055;-83
2023/03/02 21:01:41;;;;;;;36.23;15.90;;;0.90;99.90;;;;;;4786219;29;20047;-83
2023/03/02 21:04:07;;;;;;;35.57;15.77;;;2.60;99.90;;;;;;4852946;29;20544;-83
2023/03/02 21:06:42;;;;;;;35.67;16.17;;;1.40;99.90;;;;;;4859396;29;20165;-83
2023/03/02 21:09:40;;;;;;;35.33;15.47;;;3.10;99.90;;;;;;4859665;29;20494;-83
2023/03/02 21:16:18;;;;;;;37.47;16.23;;;1.40;99.90;;;;;;5034518;23;20057;-83
2023/03/02 21:19:39;;;;;;;32.67;16.17;;;1.20;99.90;;;;;;4874574;29;20068;-83
2023/03/02 21:22:38;;;;;;;34.63;15.00;;;1.30;99.90;;;;;;4851279;29;20053;-82
2023/03/02 21:25:19;;;;;;;31.80;15.23;;;1.30;99.90;;;;;;4847057;29;20113;-83
2023/03/02 21:27:45;;;;;;;36.63;15.97;;;0.40;99.90;;;;;;4871658;29;20089;-84
2023/03/02 21:31:07;;;;;;;;;;;;;;;;;;;;;
2023/03/02 21:41:37;;;;;;;34.17;16.30;;;1.10;99.90;;;;;;4777806;30;20142;-83
2023/03/02 21:44:38;;;;;;;38.90;16.92;;;0.40;99.90;;;;;;4763783;30;20059;-83
2023/03/02 21:47:16;;;;;;;36.30;16.00;;;1.10;99.90;;;;;;4796952;29;20736;-83
2023/03/02 21:49:41;;;;;;;38.13;16.17;;;1.00;99.90;;;;;;4772230;30;20071;-82
2023/03/02 21:52:07;;;;;;;40.37;18.13;;;1.60;99.90;;;;;;4778890;29;20071;-83
2023/03/02 21:55:22;;;;;;;44.60;18.57;;;0.70;99.90;;;;;;4775843;29;20050;-82
2023/03/02 22:02:20;;;;;;;45.00;18.53;;;1.60;99.90;;;;;;4841802;24;20110;-82
2023/03/02 22:08:48;;;;;;;50.67;20.13;;;0.90;99.90;;;;;;4778454;30;20059;-83
2023/03/02 22:11:29;;;;;;;51.57;20.10;;;0.60;99.90;;;;;;4769742;30;20059;-82
2023/03/02 22:14:00;;;;;;;49.40;19.43;;;2.10;99.90;;;;;;4777427;30;20041;-83
2023/03/02 22:16:38;;;;;;;52.70;20.03;;;0.90;99.90;;;;;;4808825;29;20050;-83
2023/03/02 22:19:43;;;;;;;54.00;19.70;;;1.70;99.90;;;;;;4818017;29;20046;-83
2023/03/02 22:27:45;;;;;;;49.53;20.73;;;0.90;99.90;;;;;;4853546;29;20121;-82
2023/03/02 22:30:30;;;;;;;56.50;20.90;;;0.90;99.90;;;;;;4843584;29;20049;-82
2023/03/02 22:32:56;;;;;;;54.07;21.27;;;0.80;99.90;;;;;;4827523;29;20061;-83
2023/03/02 22:35:41;;;;;;;55.13;20.47;;;1.20;99.90;;;;;;4843548;29;20129;-81
2023/03/02 22:38:13;;;;;;;60.63;22.23;;;0.90;99.90;;;;;;4827758;29;20050;-81
2023/03/02 22:40:40;;;;;;;56.03;21.73;;;0.80;99.90;;;;;;4827487;29;20218;-81
2023/03/02 22:43:20;;;;;;;51.17;19.33;;;1.00;99.90;;;;;;4843747;29;20054;-80
2023/03/02 22:45:46;;;;;;;50.30;20.47;;;1.00;99.90;;;;;;4827852;29;20060;-81
2023/03/02 22:48:24;;;;;;;48.17;18.63;;;1.10;99.90;;;;;;4827607;29;20121;-82
2023/03/02 22:50:52;;;;;;;48.07;19.27;;;1.10;99.90;;;;;;4827204;29;20136;-81
2023/03/02 22:53:28;;;;;;;45.00;18.70;;;1.10;99.90;;;;;;4844123;29;20202;-81
2023/03/02 22:56:20;;;;;;;43.77;18.17;;;1.10;99.90;;;;;;4843995;29;20513;-81
2023/03/02 22:58:50;;;;;;;47.87;18.47;;;1.10;99.90;;;;;;4843337;29;20535;-81
2023/03/02 23:01:28;;;;;;;53.83;20.20;;;1.10;99.90;;;;;;4827754;29;20483;-81